Time;durP1;ratioP1;P1;durP2;ratioP2;P2;SDS_P1;SDS_P2;PMS_P1;PMS_P2;Temp;Humidity;BMP_temperature;BMP_pressure;BME280_temperature;BME280_humidity;BME280_pressure;Samples;Min_cycle;Max_cycle;Signal;HPM_P1;HPM_P2
2023/08/19 00:01:31;;;;;;;28.42;22.88;;;20.40;99.90;;;;;;5034411;28;20095;-92
2023/08/19 00:03:57;;;;;;;28.92;23.55;;;20.40;99.90;;;;;;5034318;28;20487;-92
2023/08/19 00:06:39;;;;;;;26.15;22.50;;;20.40;99.90;;;;;;5051019;28;20567;-93
2023/08/19 00:09:08;;;;;;;24.63;20.33;;;20.30;99.90;;;;;;5051599;28;20122;-92
2023/08/19 00:11:35;;;;;;;23.73;20.50;;;20.30;99.90;;;;;;5030452;28;20052;-92
2023/08/19 00:14:05;;;;;;;22.85;19.58;;;20.30;99.90;;;;;;5043405;28;20041;-92
2023/08/19 00:16:31;;;;;;;24.50;21.50;;;20.20;99.90;;;;;;5034076;28;20032;-92
2023/08/19 00:18:57;;;;;;;26.13;21.70;;;20.20;99.90;;;;;;5067757;28;20343;-92
2023/08/19 00:21:23;;;;;;;25.73;21.70;;;20.20;99.90;;;;;;5047606;28;20045;-92
2023/08/19 00:23:50;;;;;;;23.90;20.88;;;20.20;99.90;;;;;;5050225;28;20045;-91
2023/08/19 00:26:16;;;;;;;26.00;23.27;;;20.20;99.90;;;;;;5034053;28;20045;-91
2023/08/19 00:28:42;;;;;;;23.13;20.45;;;20.10;99.90;;;;;;5030136;28;20095;-92
2023/08/19 00:31:08;;;;;;;24.52;21.73;;;20.10;99.90;;;;;;5064836;28;20054;-90
2023/08/19 00:33:34;;;;;;;24.25;21.45;;;20.10;99.90;;;;;;5059907;28;20052;-91
2023/08/19 00:36:00;;;;;;;22.60;19.92;;;20.10;99.90;;;;;;5029527;28;20150;-91
2023/08/19 00:38:26;;;;;;;25.73;21.38;;;20.00;99.90;;;;;;5061303;28;20060;-92
2023/08/19 00:40:52;;;;;;;21.77;19.40;;;20.00;99.90;;;;;;5032622;28;20041;-91
2023/08/19 00:43:17;;;;;;;25.60;21.27;;;20.00;99.90;;;;;;5050670;28;20053;-93
2023/08/19 00:45:49;;;;;;;21.73;19.50;;;20.00;99.90;;;;;;5033483;28;20040;-92
2023/08/19 00:48:17;;;;;;;23.88;20.17;;;19.90;99.90;;;;;;5034304;28;20052;-92
2023/08/19 00:50:43;;;;;;;29.50;24.25;;;19.90;99.90;;;;;;5051513;28;20045;-91
2023/08/19 00:53:10;;;;;;;23.90;20.08;;;19.90;99.90;;;;;;5060647;28;20057;-91
2023/08/19 00:55:36;;;;;;;24.02;19.95;;;19.90;99.90;;;;;;5059184;28;20054;-92
2023/08/19 00:58:07;;;;;;;22.38;19.10;;;19.90;99.90;;;;;;5048748;28;20054;-92
2023/08/19 01:00:34;;;;;;;29.90;20.75;;;19.80;99.90;;;;;;5055575;28;20493;-92
2023/08/19 01:03:00;;;;;;;22.95;19.10;;;19.80;99.90;;;;;;5047571;28;20465;-92
2023/08/19 01:06:07;;;;;;;25.75;19.73;;;19.80;99.90;;;;;;5063492;28;20088;-92
2023/08/19 01:09:03;;;;;;;27.85;22.48;;;19.70;99.90;;;;;;5026883;28;20040;-92
2023/08/19 01:11:54;;;;;;;24.75;20.27;;;19.70;99.90;;;;;;5042544;28;20048;-92
2023/08/19 01:14:34;;;;;;;30.13;23.27;;;19.70;99.90;;;;;;5050529;28;20040;-91
2023/08/19 01:17:03;;;;;;;26.15;21.42;;;19.70;99.90;;;;;;5049242;28;20503;-92
2023/08/19 01:19:31;;;;;;;32.05;23.45;;;19.60;99.90;;;;;;5049978;28;20064;-92
2023/08/19 01:22:05;;;;;;;27.50;18.95;;;19.60;99.90;;;;;;5049162;28;20048;-93
2023/08/19 01:24:50;;;;;;;22.58;19.65;;;19.50;99.90;;;;;;5049811;28;20090;-92
2023/08/19 01:27:24;;;;;;;24.00;20.27;;;19.60;99.90;;;;;;5048827;28;20048;-92
2023/08/19 01:29:55;;;;;;;28.40;23.02;;;19.60;99.90;;;;;;5022270;28;20210;-92
2023/08/19 01:32:23;;;;;;;24.90;19.95;;;19.50;99.90;;;;;;5045791;28;20104;-92
2023/08/19 01:34:50;;;;;;;21.73;19.52;;;19.50;99.90;;;;;;5023182;28;20045;-92
2023/08/19 01:37:31;;;;;;;25.08;17.67;;;19.50;99.90;;;;;;5031811;28;20040;-92
2023/08/19 01:39:59;;;;;;;25.40;20.95;;;19.50;99.90;;;;;;5049713;28;20045;-92
2023/08/19 01:42:25;;;;;;;22.88;19.88;;;19.40;99.90;;;;;;5031752;28;20045;-92
2023/08/19 01:44:53;;;;;;;20.23;18.08;;;19.40;99.90;;;;;;5032208;28;20739;-92
2023/08/19 01:47:19;;;;;;;20.83;18.38;;;19.40;99.90;;;;;;5018581;28;20433;-92
2023/08/19 01:49:48;;;;;;;21.48;16.20;;;19.40;99.90;;;;;;5032387;28;20040;-93
2023/08/19 01:52:14;;;;;;;27.02;23.30;;;19.30;99.90;;;;;;5044583;28;20045;-93
2023/08/19 01:54:41;;;;;;;23.80;19.45;;;19.30;99.90;;;;;;5059037;28;20063;-92
2023/08/19 01:57:07;;;;;;;26.13;20.92;;;19.30;99.90;;;;;;5064527;28;20041;-94
2023/08/19 01:59:33;;;;;;;18.33;15.93;;;19.30;99.90;;;;;;5047224;28;20045;-93
2023/08/19 02:01:59;;;;;;;17.77;15.90;;;19.30;99.90;;;;;;5033417;28;20088;-93
2023/08/19 02:04:25;;;;;;;16.73;13.95;;;19.30;99.90;;;;;;5020514;28;20125;-92
2023/08/19 02:06:51;;;;;;;16.15;13.73;;;19.30;99.90;;;;;;5061087;28;20042;-92
2023/08/19 02:09:17;;;;;;;18.08;16.13;;;19.30;99.90;;;;;;5066409;28;20037;-92
2023/08/19 02:11:43;;;;;;;18.40;15.85;;;19.20;99.90;;;;;;5045276;28;20115;-92
2023/08/19 02:14:09;;;;;;;24.98;19.77;;;19.30;99.90;;;;;;5062480;28;20029;-93
2023/08/19 02:16:35;;;;;;;23.13;19.02;;;19.20;99.90;;;;;;5027810;28;20042;-93
2023/08/19 02:19:01;;;;;;;22.52;19.27;;;19.30;99.90;;;;;;5075235;28;20095;-93
2023/08/19 02:21:27;;;;;;;24.17;19.63;;;19.20;99.90;;;;;;5043363;28;20532;-93
2023/08/19 02:23:53;;;;;;;21.55;19.27;;;19.20;99.90;;;;;;5038150;28;20052;-93
2023/08/19 02:26:19;;;;;;;24.30;19.63;;;19.20;99.90;;;;;;5054753;28;20052;-94
2023/08/19 02:28:45;;;;;;;27.10;22.60;;;19.20;99.90;;;;;;5020253;28;20050;-93
2023/08/19 02:31:11;;;;;;;27.58;20.77;;;19.20;99.90;;;;;;5027687;28;20048;-92
2023/08/19 02:33:38;;;;;;;25.92;21.45;;;19.30;99.90;;;;;;5022092;28;20061;-93
2023/08/19 02:36:07;;;;;;;29.60;21.58;;;19.30;99.90;;;;;;5059182;28;20052;-93
2023/08/19 02:38:33;;;;;;;26.33;21.45;;;19.30;99.90;;;;;;5059601;28;20048;-94
2023/08/19 02:40:59;;;;;;;30.77;23.80;;;19.30;99.90;;;;;;5033488;28;20377;-94
2023/08/19 02:43:25;;;;;;;31.10;23.80;;;19.30;99.90;;;;;;5023785;28;20128;-93
2023/08/19 02:45:50;;;;;;;31.00;23.38;;;19.30;99.90;;;;;;5042708;28;20493;-93
2023/08/19 02:48:16;;;;;;;37.97;26.02;;;19.40;99.90;;;;;;5025021;28;20345;-93
2023/08/19 02:50:42;;;;;;;29.52;24.45;;;19.50;99.90;;;;;;5025868;28;20115;-94
2023/08/19 02:53:08;;;;;;;32.08;23.27;;;19.50;99.90;;;;;;5023653;28;20045;-94
2023/08/19 02:55:38;;;;;;;28.55;22.92;;;19.50;99.90;;;;;;5046582;28;20135;-94
2023/08/19 02:58:04;;;;;;;31.17;24.58;;;19.50;99.90;;;;;;5049326;28;20170;-94
2023/08/19 03:00:30;;;;;;;28.13;23.77;;;19.50;99.90;;;;;;5031974;28;20152;-94
2023/08/19 03:02:55;;;;;;;28.15;23.58;;;19.50;99.90;;;;;;5044856;28;20107;-94
2023/08/19 03:05:21;;;;;;;29.77;23.10;;;19.50;99.90;;;;;;5056085;28;20036;-96
2023/08/19 03:07:47;;;;;;;31.58;26.15;;;19.60;99.90;;;;;;5052070;28;20044;-94
2023/08/19 03:10:13;;;;;;;30.17;25.42;;;19.60;99.90;;;;;;5035718;28;20178;-93
2023/08/19 03:12:39;;;;;;;25.13;21.92;;;19.60;99.90;;;;;;5021674;28;20076;-93
2023/08/19 03:15:05;;;;;;;28.83;23.35;;;19.60;99.90;;;;;;5068909;28;20049;-93
2023/08/19 03:17:31;;;;;;;26.88;22.50;;;19.60;99.90;;;;;;5021325;28;20033;-94
2023/08/19 03:19:57;;;;;;;27.50;22.60;;;19.60;99.90;;;;;;5020451;28;20481;-95
2023/08/19 03:22:22;;;;;;;31.02;23.67;;;19.60;99.90;;;;;;5076515;28;20119;-94
2023/08/19 03:24:48;;;;;;;31.77;25.92;;;19.60;99.90;;;;;;5015186;28;20049;-94
2023/08/19 03:27:14;;;;;;;31.95;24.50;;;19.60;99.90;;;;;;5048364;28;20047;-94
2023/08/19 03:29:40;;;;;;;32.38;24.95;;;19.60;99.90;;;;;;5051267;28;20041;-95
2023/08/19 03:32:05;;;;;;;32.28;24.40;;;19.60;99.90;;;;;;5034494;28;20064;-94
2023/08/19 03:34:31;;;;;;;30.17;25.05;;;19.60;99.90;;;;;;5044671;28;20049;-95
2023/08/19 03:36:57;;;;;;;35.55;22.65;;;19.60;99.90;;;;;;5062374;28;20951;-96
2023/08/19 03:39:23;;;;;;;31.25;23.63;;;19.50;99.90;;;;;;5051826;28;20045;-96
2023/08/19 03:41:48;;;;;;;31.52;23.95;;;19.50;99.90;;;;;;5034218;28;20045;-95
2023/08/19 03:44:14;;;;;;;31.17;23.50;;;19.50;99.90;;;;;;5032073;28;20037;-94
2023/08/19 03:46:40;;;;;;;30.55;26.23;;;19.50;99.90;;;;;;5031861;28;20453;-94
2023/08/19 03:49:05;;;;;;;27.40;23.25;;;19.50;99.90;;;;;;5035037;28;20044;-95
2023/08/19 03:51:31;;;;;;;27.90;22.83;;;19.50;99.90;;;;;;5034929;28;20033;-95
2023/08/19 03:53:57;;;;;;;27.65;22.13;;;19.50;99.90;;;;;;5054949;28;20049;-94
2023/08/19 03:56:23;;;;;;;36.60;25.05;;;19.50;99.90;;;;;;5034571;28;20044;-95
2023/08/19 03:58:49;;;;;;;26.92;22.08;;;19.50;99.90;;;;;;5015532;28;20064;-95
2023/08/19 04:01:14;;;;;;;29.10;23.58;;;19.50;99.90;;;;;;5031413;28;20378;-95
2023/08/19 04:03:40;;;;;;;25.70;22.20;;;19.50;99.90;;;;;;5054496;28;20397;-94
2023/08/19 04:06:06;;;;;;;27.88;23.38;;;19.50;99.90;;;;;;5020950;28;20061;-93
2023/08/19 04:08:32;;;;;;;27.23;21.90;;;19.50;99.90;;;;;;5015378;28;20107;-93
2023/08/19 04:11:07;;;;;;;25.42;22.20;;;19.50;99.90;;;;;;5061100;28;20041;-93
2023/08/19 04:13:33;;;;;;;27.13;22.25;;;19.50;99.90;;;;;;5014684;28;20038;-94
2023/08/19 04:16:06;;;;;;;27.73;22.15;;;19.50;99.90;;;;;;5027495;28;20521;-94
2023/08/19 04:18:32;;;;;;;;;;;19.60;99.90;;;;;;5034851;28;20036;-94
2023/08/19 04:21:03;;;;;;;29.80;22.52;;;19.50;99.90;;;;;;5032656;28;19924;-94
2023/08/19 04:23:29;;;;;;;30.70;24.90;;;19.50;99.90;;;;;;5035415;28;20101;-94
2023/08/19 04:25:55;;;;;;;26.83;23.35;;;19.50;99.90;;;;;;5049881;28;20048;-93
2023/08/19 04:28:21;;;;;;;26.38;22.40;;;19.60;99.90;;;;;;5024770;28;20063;-95
2023/08/19 04:30:47;;;;;;;30.60;24.20;;;19.60;99.90;;;;;;5030513;28;20299;-95
2023/08/19 04:33:14;;;;;;;29.25;24.20;;;19.60;99.90;;;;;;5040588;28;20083;-94
2023/08/19 04:35:42;;;;;;;33.33;24.35;;;19.60;99.90;;;;;;5030190;28;20045;-94
2023/08/19 04:38:07;;;;;;;24.25;21.65;;;19.60;99.90;;;;;;5050522;28;20123;-94
2023/08/19 04:40:33;;;;;;;26.60;22.45;;;19.70;99.90;;;;;;5047349;28;20164;-95
2023/08/19 04:42:59;;;;;;;27.23;22.33;;;19.70;99.90;;;;;;5047448;28;20052;-95
2023/08/19 04:45:24;;;;;;;28.85;24.85;;;19.70;99.90;;;;;;5081074;28;20037;-94
2023/08/19 04:47:50;;;;;;;28.70;24.77;;;19.70;99.90;;;;;;5065253;28;20128;-94
2023/08/19 04:50:16;;;;;;;26.40;22.13;;;19.80;99.90;;;;;;5018641;28;20041;-94
2023/08/19 04:52:42;;;;;;;29.83;23.85;;;19.70;99.90;;;;;;5054540;28;20396;-96
2023/08/19 04:55:08;;;;;;;31.15;24.98;;;19.80;99.90;;;;;;5078326;28;20136;-95
2023/08/19 04:57:34;;;;;;;29.17;21.60;;;19.80;99.90;;;;;;5013705;28;20044;-94
2023/08/19 05:00:00;;;;;;;25.98;21.25;;;19.80;99.90;;;;;;5048210;28;20052;-95
2023/08/19 05:02:26;;;;;;;29.23;21.95;;;19.90;99.90;;;;;;5032765;28;20072;-93
2023/08/19 05:04:51;;;;;;;29.70;22.00;;;19.90;99.90;;;;;;5066030;28;20037;-94
2023/08/19 05:07:17;;;;;;;27.65;20.25;;;19.90;99.90;;;;;;5033526;28;20064;-94
2023/08/19 05:09:43;;;;;;;28.92;21.02;;;20.00;99.90;;;;;;5033270;28;20053;-95
2023/08/19 05:12:09;;;;;;;27.40;21.20;;;20.00;99.90;;;;;;5051334;28;20076;-95
2023/08/19 05:14:34;;;;;;;24.30;19.15;;;20.10;99.90;;;;;;5053885;28;20165;-95
2023/08/19 05:17:03;;;;;;;29.48;22.33;;;20.10;99.90;;;;;;5033587;28;20087;-94
2023/08/19 05:19:31;;;;;;;25.27;20.05;;;20.20;99.90;;;;;;5036868;28;20048;-94
2023/08/19 05:21:57;;;;;;;21.88;18.85;;;20.20;99.90;;;;;;5029039;28;20079;-95
2023/08/19 05:24:23;;;;;;;21.92;18.02;;;20.30;99.90;;;;;;5046069;28;20115;-94
2023/08/19 05:26:48;;;;;;;22.63;17.92;;;20.30;99.90;;;;;;5031578;28;20103;-94
2023/08/19 05:29:16;;;;;;;21.38;17.02;;;20.60;99.90;;;;;;5020878;28;20044;-94
2023/08/19 05:31:42;;;;;;;22.27;17.05;;;20.50;99.90;;;;;;5031297;28;20088;-96
2023/08/19 05:34:08;;;;;;;19.88;14.93;;;20.50;99.90;;;;;;5050874;28;20472;-95
2023/08/19 05:36:34;;;;;;;20.83;16.10;;;20.50;99.90;;;;;;5054724;28;20045;-94
2023/08/19 05:39:00;;;;;;;20.60;16.98;;;20.60;99.90;;;;;;5015434;28;20046;-95
2023/08/19 05:41:26;;;;;;;18.38;15.20;;;20.60;99.90;;;;;;5029381;28;20057;-93
2023/08/19 05:43:52;;;;;;;21.00;14.70;;;20.70;99.90;;;;;;5033018;28;20396;-96
2023/08/19 05:46:18;;;;;;;22.13;14.57;;;20.70;99.90;;;;;;5031623;28;20123;-94
2023/08/19 05:48:44;;;;;;;22.45;14.77;;;20.70;99.90;;;;;;5031765;28;20087;-93
2023/08/19 05:51:10;;;;;;;20.45;14.88;;;20.80;99.90;;;;;;5043795;28;20041;-94
2023/08/19 05:53:36;;;;;;;19.38;14.98;;;20.80;99.90;;;;;;5062629;28;20049;-95
2023/08/19 05:56:02;;;;;;;17.67;13.43;;;20.90;99.90;;;;;;5028144;28;20467;-95
2023/08/19 05:58:27;;;;;;;20.58;13.77;;;21.00;99.90;;;;;;5033245;28;20435;-96
2023/08/19 06:01:00;;;;;;;22.30;14.77;;;21.00;99.90;;;;;;5028192;28;20053;-96
2023/08/19 06:03:26;;;;;;;16.48;12.43;;;21.10;99.90;;;;;;5044363;28;20107;-95
2023/08/19 06:05:52;;;;;;;21.38;13.10;;;21.20;99.90;;;;;;5012748;28;20057;-96
2023/08/19 06:08:18;;;;;;;15.02;12.20;;;21.20;99.90;;;;;;5043403;28;20060;-96
2023/08/19 06:10:44;;;;;;;19.20;12.43;;;21.30;99.90;;;;;;5059272;28;20060;-96
2023/08/19 06:13:11;;;;;;;18.70;12.45;;;21.30;99.90;;;;;;5025199;28;20048;-96
2023/08/19 06:15:37;;;;;;;13.32;11.10;;;21.40;99.90;;;;;;5022504;28;20056;-96
2023/08/19 06:18:05;;;;;;;13.55;11.88;;;21.50;99.90;;;;;;5046420;28;20037;-95
2023/08/19 06:20:44;;;;;;;15.80;11.38;;;21.50;99.90;;;;;;5048214;28;20517;-96
2023/08/19 06:23:10;;;;;;;20.38;11.90;;;21.60;99.90;;;;;;5048332;28;20485;-96
2023/08/19 06:25:36;;;;;;;15.15;11.13;;;21.70;99.90;;;;;;5083242;28;20049;-96
2023/08/19 06:28:02;;;;;;;14.68;10.80;;;21.80;99.90;;;;;;5066931;28;20045;-96
2023/08/19 06:30:28;;;;;;;14.15;10.05;;;21.80;99.90;;;;;;5060239;28;20041;-96
2023/08/19 06:32:54;;;;;;;12.30;9.15;;;21.90;99.90;;;;;;5017077;28;20115;-96
2023/08/19 06:35:20;;;;;;;15.68;9.40;;;21.90;99.90;;;;;;5037869;28;20489;-96
2023/08/19 06:37:52;;;;;;;13.70;9.85;;;22.00;99.90;;;;;;5038998;28;20052;-96
2023/08/19 06:40:22;;;;;;;13.32;9.40;;;22.00;99.90;;;;;;5068449;28;20045;-96
2023/08/19 06:42:49;;;;;;;12.10;9.00;;;22.00;99.90;;;;;;5063839;28;20049;-96
2023/08/19 06:45:16;;;;;;;11.85;9.48;;;22.10;99.90;;;;;;5026934;28;20041;-96
2023/08/19 06:47:45;;;;;;;13.32;9.40;;;22.00;99.90;;;;;;5044109;28;20154;-96
2023/08/19 06:50:21;;;;;;;19.45;9.30;;;22.00;99.90;;;;;;5036481;28;20045;-96
2023/08/19 06:53:04;;;;;;;12.05;8.82;;;22.10;99.90;;;;;;5044777;28;20603;-93
2023/08/19 06:55:30;;;;;;;14.18;9.35;;;22.00;99.90;;;;;;5013553;28;20037;-96
2023/08/19 06:58:14;;;;;;;13.30;9.05;;;21.90;99.90;;;;;;5044903;28;20063;-96
2023/08/19 07:00:46;;;;;;;18.35;10.00;;;21.90;99.90;;;;;;5053386;28;20116;-95
2023/08/19 07:03:16;;;;;;;14.87;9.77;;;21.90;99.90;;;;;;5025543;28;20049;-96
2023/08/19 07:05:54;;;;;;;15.38;10.32;;;21.90;99.90;;;;;;5035151;28;20029;-96
2023/08/19 07:08:20;;;;;;;14.10;11.25;;;21.90;99.90;;;;;;5027368;28;20516;-93
2023/08/19 07:10:46;;;;;;;16.85;10.68;;;21.80;99.90;;;;;;5026249;28;20051;-96
2023/08/19 07:13:14;;;;;;;16.98;11.43;;;21.80;99.90;;;;;;5047557;28;20045;-96
2023/08/19 07:15:46;;;;;;;14.82;10.30;;;21.80;99.90;;;;;;5032081;28;20045;-95
2023/08/19 07:18:15;;;;;;;15.98;10.18;;;21.80;99.90;;;;;;5022482;28;20469;-90
2023/08/19 07:20:43;;;;;;;17.33;10.50;;;21.80;99.90;;;;;;5020628;28;20064;-96
2023/08/19 07:23:13;;;;;;;13.95;10.52;;;21.80;99.90;;;;;;5031630;28;20107;-96
2023/08/19 07:25:39;;;;;;;16.95;10.70;;;21.80;99.90;;;;;;5018474;28;20120;-93
2023/08/19 07:28:11;;;;;;;13.45;10.07;;;21.90;99.90;;;;;;5034443;28;20472;-92
2023/08/19 07:30:37;;;;;;;12.80;9.55;;;21.90;99.90;;;;;;5016652;28;20040;-90
2023/08/19 07:33:04;;;;;;;15.63;10.43;;;21.90;99.90;;;;;;5018063;28;20523;-90
2023/08/19 07:35:30;;;;;;;12.82;9.52;;;22.00;99.90;;;;;;5057695;28;20127;-91
2023/08/19 07:37:55;;;;;;;13.75;9.27;;;22.10;99.90;;;;;;5029101;28;20148;-91
2023/08/19 07:40:21;;;;;;;16.33;9.18;;;22.10;99.90;;;;;;5063124;28;20045;-92
2023/08/19 07:42:47;;;;;;;10.93;8.98;;;22.20;99.90;;;;;;5025677;28;20136;-91
2023/08/19 07:45:12;;;;;;;14.68;9.40;;;22.20;99.90;;;;;;5041169;28;20067;-91
2023/08/19 07:47:38;;;;;;;15.88;9.20;;;22.30;99.90;;;;;;5061392;28;20049;-91
2023/08/19 07:50:04;;;;;;;18.10;9.02;;;22.40;99.90;;;;;;5027009;28;20038;-91
2023/08/19 07:52:30;;;;;;;13.95;8.93;;;22.40;99.90;;;;;;5047077;28;20025;-91
2023/08/19 07:54:57;;;;;;;14.13;7.90;;;22.60;99.90;;;;;;5047258;28;20144;-92
2023/08/19 07:57:23;;;;;;;12.93;8.75;;;22.60;99.90;;;;;;5031245;28;20045;-91
2023/08/19 07:59:48;;;;;;;14.52;8.68;;;22.70;99.90;;;;;;5046342;28;20199;-91
2023/08/19 08:02:14;;;;;;;10.18;8.20;;;22.70;99.90;;;;;;5028575;28;20420;-90
2023/08/19 08:04:40;;;;;;;14.57;8.88;;;22.80;99.90;;;;;;5044818;28;20451;-91
2023/08/19 08:07:07;;;;;;;12.65;8.07;;;22.80;99.90;;;;;;5048980;28;20070;-91
2023/08/19 08:09:32;;;;;;;13.00;8.45;;;22.80;99.90;;;;;;5066380;28;20076;-92
2023/08/19 08:11:58;;;;;;;11.23;7.80;;;22.90;99.90;;;;;;5031745;28;20131;-91
2023/08/19 08:14:24;;;;;;;10.60;8.15;;;22.90;99.90;;;;;;5049467;28;20076;-91
2023/08/19 08:16:51;;;;;;;11.63;7.85;;;23.00;99.90;;;;;;5032272;28;20099;-92
2023/08/19 08:19:16;;;;;;;12.55;7.55;;;23.00;99.90;;;;;;5047247;28;20672;-91
2023/08/19 08:21:42;;;;;;;10.27;7.20;;;23.00;99.90;;;;;;5048657;28;20040;-92
2023/08/19 08:24:09;;;;;;;10.65;7.25;;;23.10;99.90;;;;;;5047301;28;20042;-91
2023/08/19 08:26:35;;;;;;;15.35;7.43;;;23.20;99.90;;;;;;5065218;28;20048;-92
2023/08/19 08:29:02;;;;;;;11.05;7.70;;;23.20;99.90;;;;;;5049228;28;20049;-91
2023/08/19 08:31:28;;;;;;;10.43;7.00;;;23.30;99.90;;;;;;5028785;28;20037;-91
2023/08/19 08:33:53;;;;;;;13.32;6.82;;;23.30;99.90;;;;;;5041626;28;20068;-92
2023/08/19 08:36:19;;;;;;;11.23;7.18;;;23.40;99.90;;;;;;5028927;28;20055;-92
2023/08/19 08:38:46;;;;;;;14.80;6.30;;;23.50;99.90;;;;;;5077377;28;20045;-91
2023/08/19 08:41:13;;;;;;;10.68;6.85;;;23.50;99.90;;;;;;5029239;28;20053;-89
2023/08/19 08:43:40;;;;;;;11.25;6.72;;;23.50;99.90;;;;;;5079329;28;20045;-88
2023/08/19 08:46:06;;;;;;;9.88;6.00;;;23.70;99.90;;;;;;5040654;28;20038;-88
2023/08/19 08:48:32;;;;;;;11.82;6.80;;;23.70;99.90;;;;;;5028146;28;20443;-88
2023/08/19 08:50:59;;;;;;;11.13;7.47;;;23.80;99.90;;;;;;5049546;28;20083;-88
2023/08/19 08:53:29;;;;;;;9.93;5.78;;;23.80;99.90;;;;;;5049560;28;20084;-89
2023/08/19 08:55:56;;;;;;;11.75;7.05;;;23.90;99.90;;;;;;5065292;28;20072;-87
2023/08/19 08:58:22;;;;;;;13.13;6.28;;;24.00;99.90;;;;;;5033204;28;20550;-91
2023/08/19 09:00:52;;;;;;;12.30;6.32;;;24.10;99.90;;;;;;5032191;28;20036;-89
2023/08/19 09:03:23;;;;;;;10.40;5.93;;;24.30;99.90;;;;;;5031949;28;20053;-89
2023/08/19 09:05:52;;;;;;;10.65;6.13;;;24.50;99.90;;;;;;5031865;28;20037;-87
2023/08/19 09:08:22;;;;;;;8.15;5.72;;;24.70;99.90;;;;;;5048008;28;20125;-86
2023/08/19 09:10:49;;;;;;;10.80;5.32;;;24.80;99.90;;;;;;5050151;28;20041;-91
2023/08/19 09:13:21;;;;;;;14.80;5.55;;;24.90;99.90;;;;;;5038137;28;20116;-91
2023/08/19 09:15:46;;;;;;;8.30;5.00;;;25.10;99.90;;;;;;5049186;28;20111;-91
2023/08/19 09:18:12;;;;;;;10.75;5.25;;;25.20;99.90;;;;;;5047253;28;20488;-89
2023/08/19 09:20:40;;;;;;;10.90;5.47;;;25.40;99.90;;;;;;5050039;28;20128;-90
2023/08/19 09:23:09;;;;;;;9.75;5.10;;;25.60;99.90;;;;;;5064490;28;20040;-88
2023/08/19 09:25:37;;;;;;;11.48;5.05;;;25.80;99.90;;;;;;5022999;28;20127;-88
2023/08/19 09:28:03;;;;;;;9.15;5.55;;;25.90;99.90;;;;;;5042029;28;20489;-89
2023/08/19 09:30:33;;;;;;;8.70;5.00;;;26.10;99.90;;;;;;5046208;28;20037;-87
2023/08/19 09:33:00;;;;;;;13.77;5.10;;;26.20;99.90;;;;;;5040722;28;20442;-88
2023/08/19 09:35:37;;;;;;;7.15;4.47;;;26.30;99.90;;;;;;5018256;28;20033;-88
2023/08/19 09:38:03;;;;;;;11.80;4.70;;;26.30;99.90;;;;;;5058914;28;20041;-88
2023/08/19 09:40:29;;;;;;;11.77;5.38;;;26.20;99.90;;;;;;5048522;28;20481;-90
2023/08/19 09:43:00;;;;;;;14.15;5.22;;;26.20;99.90;;;;;;5031408;28;20548;-86
2023/08/19 09:45:27;;;;;;;10.85;5.00;;;26.10;99.90;;;;;;5031605;28;20037;-89
2023/08/19 09:47:53;;;;;;;7.88;4.65;;;26.10;99.90;;;;;;5042642;28;20045;-92
2023/08/19 09:50:23;;;;;;;10.27;4.47;;;26.00;99.90;;;;;;5049130;28;20040;-93
2023/08/19 09:52:59;;;;;;;8.85;4.97;;;25.90;99.90;;;;;;5045780;28;20037;-95
2023/08/19 09:55:27;;;;;;;9.77;4.70;;;25.90;99.90;;;;;;5040399;28;20045;-91
2023/08/19 09:57:53;;;;;;;8.32;5.13;;;25.90;99.90;;;;;;5045822;28;20041;-88
2023/08/19 10:00:20;;;;;;;10.18;4.57;;;25.80;99.90;;;;;;5056853;28;20060;-87
2023/08/19 10:02:46;;;;;;;9.73;4.82;;;25.90;99.90;;;;;;5046393;28;20049;-88
2023/08/19 10:05:12;;;;;;;10.80;5.10;;;25.90;99.90;;;;;;5065111;28;20039;-89
2023/08/19 10:07:45;;;;;;;8.45;4.65;;;26.00;99.90;;;;;;5036326;28;20076;-92
2023/08/19 10:10:13;;;;;;;9.30;4.85;;;26.10;99.90;;;;;;5059313;28;20493;-87
2023/08/19 10:12:40;;;;;;;8.07;4.68;;;26.10;99.90;;;;;;5039946;28;20033;-86
2023/08/19 10:15:12;;;;;;;11.02;4.75;;;26.10;99.90;;;;;;5042552;28;20041;-94
2023/08/19 10:17:41;;;;;;;10.45;4.80;;;26.00;99.90;;;;;;5070408;28;20076;-89
2023/08/19 10:20:12;;;;;;;9.55;4.88;;;25.90;99.90;;;;;;5053217;28;20076;-95
2023/08/19 10:22:47;;;;;;;8.68;4.68;;;25.70;99.90;;;;;;5083748;28;20128;-95
2023/08/19 10:25:17;;;;;;;8.65;4.78;;;25.60;99.90;;;;;;5042102;28;20099;-88
2023/08/19 10:27:46;;;;;;;10.57;5.15;;;25.40;99.90;;;;;;5044664;28;20046;-89
2023/08/19 10:30:24;;;;;;;9.82;4.50;;;25.40;99.90;;;;;;5028660;28;20037;-89
2023/08/19 10:32:50;;;;;;;13.77;4.93;;;25.30;99.90;;;;;;5043768;28;20057;-86
2023/08/19 10:35:17;;;;;;;9.48;4.90;;;25.20;99.90;;;;;;5061391;28;20047;-89
2023/08/19 10:37:49;;;;;;;6.97;4.80;;;25.10;99.90;;;;;;5050987;28;20094;-87
2023/08/19 10:40:21;;;;;;;12.68;6.05;;;24.90;99.90;;;;;;5050822;28;20558;-85
2023/08/19 10:43:00;;;;;;;14.02;6.15;;;24.80;99.90;;;;;;5049614;28;20110;-88
2023/08/19 10:45:34;;;;;;;16.15;6.40;;;24.80;99.90;;;;;;5052145;28;20073;-89
2023/08/19 10:48:00;;;;;;;23.33;6.75;;;24.70;99.90;;;;;;5052364;28;20044;-88
2023/08/19 10:50:26;;;;;;;13.65;6.57;;;24.70;99.90;;;;;;5050700;28;20041;-89
2023/08/19 10:53:06;;;;;;;18.63;6.15;;;24.90;99.90;;;;;;5034953;28;20044;-89
2023/08/19 10:56:11;;;;;;;19.75;6.75;;;25.10;99.90;;;;;;5047307;28;20068;-88
2023/08/19 10:58:37;;;;;;;12.65;6.13;;;25.40;99.90;;;;;;5024107;28;20069;-88
2023/08/19 11:01:04;;;;;;;8.77;6.10;;;25.60;99.90;;;;;;5048122;28;20045;-89
2023/08/19 11:03:30;;;;;;;10.30;6.22;;;25.80;99.90;;;;;;5047375;28;20041;-90
2023/08/19 11:05:56;;;;;;;9.57;5.93;;;25.90;99.90;;;;;;5082389;28;20044;-88
2023/08/19 11:08:22;;;;;;;14.23;6.07;;;25.90;99.90;;;;;;5052356;28;20032;-90
2023/08/19 11:10:48;;;;;;;10.77;6.57;;;25.80;99.90;;;;;;5051323;28;20037;-92
2023/08/19 11:13:15;;;;;;;15.45;6.85;;;25.80;99.90;;;;;;5063268;28;20094;-91
2023/08/19 11:15:42;;;;;;;14.13;5.68;;;25.70;99.90;;;;;;5051929;28;20048;-93
2023/08/19 11:18:08;;;;;;;12.43;6.28;;;25.50;99.90;;;;;;5049063;28;20077;-92
2023/08/19 11:20:35;;;;;;;12.38;6.85;;;25.40;99.90;;;;;;5062264;28;20091;-93
2023/08/19 11:23:02;;;;;;;13.98;6.82;;;25.30;99.90;;;;;;5033241;28;20049;-90
2023/08/19 11:25:38;;;;;;;11.48;7.53;;;25.20;99.90;;;;;;5045595;28;20099;-89
2023/08/19 11:28:05;;;;;;;22.88;7.38;;;25.30;99.90;;;;;;5035285;28;20374;-91
2023/08/19 11:30:35;;;;;;;14.93;7.70;;;25.50;99.90;;;;;;5052193;28;20580;-91
2023/08/19 11:33:02;;;;;;;12.48;7.07;;;25.70;99.90;;;;;;5034862;28;20474;-86
2023/08/19 11:35:40;;;;;;;9.88;6.70;;;26.00;99.90;;;;;;5051476;28;20045;-91
2023/08/19 11:38:17;;;;;;;14.50;7.43;;;26.20;99.90;;;;;;5051625;28;20045;-92
2023/08/19 11:40:43;;;;;;;14.68;7.75;;;26.50;99.90;;;;;;5040978;28;20052;-93
2023/08/19 11:43:13;;;;;;;9.65;7.68;;;26.50;99.90;;;;;;5051235;28;20055;-93
2023/08/19 11:45:40;;;;;;;14.45;7.55;;;26.60;99.90;;;;;;5027120;28;20053;-85
2023/08/19 11:48:08;;;;;;;10.32;7.43;;;26.60;99.90;;;;;;5043660;28;20044;-86
2023/08/19 11:50:37;;;;;;;13.05;7.63;;;26.60;99.90;;;;;;5028348;28;20052;-85
2023/08/19 11:53:03;;;;;;;16.30;7.95;;;26.60;99.90;;;;;;5042479;28;20041;-85
2023/08/19 11:55:29;;;;;;;14.77;7.93;;;26.60;99.90;;;;;;5032458;28;20045;-85
2023/08/19 11:57:55;;;;;;;14.45;8.57;;;26.60;99.90;;;;;;5062490;28;20033;-86
2023/08/19 12:00:24;;;;;;;13.18;8.93;;;26.60;99.90;;;;;;5049225;28;20515;-86
2023/08/19 12:02:50;;;;;;;13.77;9.40;;;26.60;99.90;;;;;;5047692;28;20077;-85
2023/08/19 12:05:23;;;;;;;14.43;9.52;;;26.70;99.90;;;;;;5028978;28;20089;-86
2023/08/19 12:07:49;;;;;;;19.08;10.07;;;26.60;99.90;;;;;;5026319;28;20108;-86
2023/08/19 12:10:30;;;;;;;;;;;;;;;;;;;;;
2023/08/19 12:13:04;;;;;;;19.95;9.77;;;26.80;99.90;;;;;;5128138;22;20058;-88
2023/08/19 12:15:31;;;;;;;12.25;9.90;;;26.90;99.90;;;;;;5093436;28;20043;-88
2023/08/19 12:17:57;;;;;;;15.98;10.88;;;26.90;99.90;;;;;;5077362;28;20043;-89
2023/08/19 12:20:23;;;;;;;14.82;10.60;;;27.00;99.90;;;;;;5070538;28;20491;-90
2023/08/19 12:22:48;;;;;;;19.15;11.02;;;27.00;99.90;;;;;;5073294;28;20031;-90
2023/08/19 12:25:14;;;;;;;16.40;11.02;;;26.90;99.90;;;;;;5062957;28;20193;-90
2023/08/19 12:27:40;;;;;;;16.92;11.73;;;26.80;99.90;;;;;;5080295;28;20054;-90
2023/08/19 12:30:06;;;;;;;17.92;11.25;;;26.80;99.90;;;;;;5067501;28;20046;-90
2023/08/19 12:32:32;;;;;;;19.17;13.00;;;26.70;99.90;;;;;;5073785;28;20114;-89
2023/08/19 12:34:57;;;;;;;17.27;13.75;;;26.70;99.90;;;;;;5073087;28;20126;-89
2023/08/19 12:37:25;;;;;;;22.27;14.48;;;26.60;99.90;;;;;;5090611;28;20118;-89